createdAt,value
2023-05-09T00:01:25.112Z,15.70
2023-05-09T00:03:52.168Z,15.70
2023-05-09T00:06:19.546Z,15.50
2023-05-09T00:08:46.210Z,15.60
2023-05-09T00:11:12.876Z,15.60
2023-05-09T00:13:39.442Z,15.60
2023-05-09T00:16:06.463Z,15.50
2023-05-09T00:18:33.891Z,15.30
2023-05-09T00:21:03.033Z,15.30
2023-05-09T00:23:30.444Z,15.20
2023-05-09T00:25:58.250Z,15.20
2023-05-09T00:28:24.866Z,15.30
2023-05-09T00:30:51.416Z,15.20
2023-05-09T00:33:18.016Z,15.20
2023-05-09T00:35:44.601Z,15.10
2023-05-09T00:38:11.313Z,15.10
2023-05-09T00:40:38.072Z,15.00
2023-05-09T00:43:04.952Z,14.90
2023-05-09T00:45:31.692Z,14.80
2023-05-09T00:47:58.473Z,14.80
2023-05-09T00:50:25.284Z,14.80
2023-05-09T00:52:51.949Z,14.80
2023-05-09T00:55:19.620Z,14.80
2023-05-09T00:57:46.357Z,14.70
2023-05-09T01:00:16.609Z,14.70
2023-05-09T01:02:46.906Z,14.70
2023-05-09T01:05:14.865Z,14.70
2023-05-09T01:07:52.470Z,14.60
2023-05-09T01:10:40.700Z,14.50
2023-05-09T01:13:35.602Z,14.50
2023-05-09T01:16:16.744Z,14.40
2023-05-09T01:18:54.360Z,14.40
2023-05-09T01:21:26.866Z,14.40
2023-05-09T01:24:18.715Z,14.50
2023-05-09T01:27:19.284Z,14.40
2023-05-09T01:29:48.265Z,14.30
2023-05-09T01:32:22.692Z,14.30
2023-05-09T01:34:52.446Z,14.30
2023-05-09T01:37:22.321Z,14.20
2023-05-09T01:39:53.064Z,14.20
2023-05-09T01:42:22.635Z,14.30
2023-05-09T01:44:49.714Z,14.20
2023-05-09T01:47:18.168Z,14.20
2023-05-09T01:49:45.796Z,14.20
2023-05-09T01:52:16.598Z,14.10
2023-05-09T01:54:45.356Z,14.10
2023-05-09T01:57:12.681Z,14.10
2023-05-09T01:59:41.925Z,14.10
2023-05-09T02:02:08.907Z,14.00
2023-05-09T02:04:36.691Z,13.90
2023-05-09T02:07:05.450Z,14.00
2023-05-09T02:09:32.198Z,13.90
2023-05-09T02:11:58.874Z,13.90
2023-05-09T02:14:26.045Z,13.90
2023-05-09T02:16:52.728Z,13.80
2023-05-09T02:19:19.307Z,13.80
2023-05-09T02:21:45.900Z,13.70
2023-05-09T02:24:14.614Z,13.70
2023-05-09T02:26:41.939Z,13.70
2023-05-09T02:29:10.363Z,13.60
2023-05-09T02:31:42.254Z,13.60
2023-05-09T02:34:09.706Z,13.60
2023-05-09T02:36:36.504Z,13.50
2023-05-09T02:39:03.545Z,13.50
2023-05-09T02:41:30.771Z,13.40
2023-05-09T02:43:57.363Z,13.50
2023-05-09T02:46:24.093Z,13.40
2023-05-09T02:48:51.556Z,13.30
2023-05-09T02:51:18.250Z,13.20
2023-05-09T02:53:44.978Z,13.20
2023-05-09T02:56:11.573Z,13.10
2023-05-09T02:58:38.275Z,13.20
2023-05-09T03:01:04.991Z,13.20
2023-05-09T03:03:34.056Z,13.20
2023-05-09T03:06:01.439Z,13.20
2023-05-09T03:08:28.110Z,13.30
2023-05-09T03:10:54.807Z,13.20
2023-05-09T03:13:21.516Z,13.10
2023-05-09T03:15:48.337Z,13.10
2023-05-09T03:18:14.957Z,13.10
2023-05-09T03:20:41.494Z,13.00
2023-05-09T03:23:08.233Z,13.00
2023-05-09T03:25:34.806Z,12.90
2023-05-09T03:28:01.651Z,12.80
2023-05-09T03:30:28.244Z,12.70
2023-05-09T03:32:54.845Z,12.70
2023-05-09T03:35:21.592Z,12.70
2023-05-09T03:37:48.134Z,12.60
2023-05-09T03:40:14.750Z,12.60
2023-05-09T03:42:41.314Z,12.60
2023-05-09T03:45:08.485Z,12.60
2023-05-09T03:47:35.076Z,12.60
2023-05-09T03:50:01.880Z,12.50
2023-05-09T03:52:28.448Z,12.50
2023-05-09T03:54:55.098Z,12.40
2023-05-09T03:57:21.635Z,12.30
2023-05-09T03:59:48.196Z,12.30
2023-05-09T04:02:14.915Z,12.30
2023-05-09T04:04:41.552Z,12.30
2023-05-09T04:07:08.153Z,12.30
2023-05-09T04:09:34.780Z,12.30
2023-05-09T04:12:01.296Z,12.40
2023-05-09T04:14:27.818Z,12.40
2023-05-09T04:16:54.574Z,12.40
2023-05-09T04:19:21.185Z,12.40
2023-05-09T04:21:47.750Z,12.30
2023-05-09T04:24:14.274Z,12.30
2023-05-09T04:26:41.061Z,12.30
2023-05-09T04:29:07.682Z,12.30
2023-05-09T04:31:34.385Z,12.20
2023-05-09T04:34:01.067Z,12.20
2023-05-09T04:36:28.512Z,12.10
2023-05-09T04:38:55.062Z,12.10
2023-05-09T04:41:21.643Z,12.00
2023-05-09T04:43:48.343Z,12.10
2023-05-09T04:46:14.956Z,12.00
2023-05-09T04:48:41.574Z,12.00
2023-05-09T04:51:08.206Z,12.00
2023-05-09T04:53:34.817Z,12.10
2023-05-09T04:56:01.363Z,12.00
2023-05-09T04:58:29.857Z,12.00
2023-05-09T05:00:56.424Z,12.10
2023-05-09T05:03:22.991Z,12.10
2023-05-09T05:05:49.625Z,12.10
2023-05-09T05:08:16.316Z,12.10
2023-05-09T05:10:42.900Z,12.10
2023-05-09T05:13:09.534Z,12.00
2023-05-09T05:15:36.140Z,12.10
2023-05-09T05:18:02.881Z,12.00
2023-05-09T05:20:29.533Z,12.00
2023-05-09T05:22:56.130Z,12.10
2023-05-09T05:25:22.920Z,12.30
2023-05-09T05:27:49.545Z,12.30
2023-05-09T05:30:18.299Z,12.20
2023-05-09T05:32:45.034Z,12.20
2023-05-09T05:35:11.951Z,12.40
2023-05-09T05:37:39.688Z,12.30
2023-05-09T05:40:08.536Z,12.40
2023-05-09T05:42:36.372Z,12.50
2023-05-09T05:45:06.162Z,12.50
2023-05-09T05:47:38.718Z,12.60
2023-05-09T05:50:11.816Z,12.50
2023-05-09T05:52:39.477Z,12.50
2023-05-09T05:55:06.412Z,12.50
2023-05-09T05:57:36.738Z,12.60
2023-05-09T06:00:08.036Z,12.60
2023-05-09T06:02:34.790Z,12.60
2023-05-09T06:05:01.499Z,12.70
2023-05-09T06:07:29.627Z,12.70
2023-05-09T06:09:56.142Z,12.80
2023-05-09T06:12:22.692Z,12.90
2023-05-09T06:17:41.479Z,13.00
2023-05-09T06:20:09.773Z,13.10
2023-05-09T06:22:36.329Z,13.10
2023-05-09T06:25:08.125Z,13.20
2023-05-09T06:27:36.147Z,13.30
2023-05-09T06:30:14.234Z,13.40
2023-05-09T06:32:55.324Z,13.40
2023-05-09T06:35:23.953Z,13.50
2023-05-09T06:37:50.656Z,13.60
2023-05-09T06:40:22.724Z,13.70
2023-05-09T06:42:49.282Z,13.70
2023-05-09T06:45:16.139Z,13.70
2023-05-09T06:47:43.033Z,13.70
2023-05-09T06:50:11.457Z,13.60
2023-05-09T06:52:38.070Z,13.70
2023-05-09T06:55:05.224Z,13.80
2023-05-09T06:57:32.155Z,14.00
2023-05-09T07:00:00.878Z,14.00
2023-05-09T07:02:27.502Z,14.00
2023-05-09T07:04:56.649Z,14.10
2023-05-09T07:07:23.424Z,14.20
2023-05-09T07:09:52.967Z,14.40
2023-05-09T07:12:22.043Z,14.50
2023-05-09T07:14:50.020Z,14.60
2023-05-09T07:17:23.605Z,14.50
2023-05-09T07:19:51.336Z,14.50
2023-05-09T07:22:18.089Z,14.60
2023-05-09T07:24:48.299Z,14.60
2023-05-09T07:27:16.384Z,14.70
2023-05-09T07:29:42.954Z,14.90
2023-05-09T07:32:09.605Z,14.90
2023-05-09T07:34:36.343Z,15.10
2023-05-09T07:37:03.021Z,15.20
2023-05-09T07:39:29.635Z,15.30
2023-05-09T07:41:58.155Z,15.40
2023-05-09T07:44:24.761Z,15.30
2023-05-09T07:46:53.433Z,15.60
2023-05-09T07:49:19.948Z,15.80
2023-05-09T07:51:46.503Z,15.80
2023-05-09T07:54:15.665Z,16.00
2023-05-09T07:56:42.795Z,16.10
2023-05-09T07:59:09.349Z,16.10
2023-05-09T08:01:36.078Z,16.20
2023-05-09T08:04:04.858Z,16.30
2023-05-09T08:06:31.579Z,16.30
2023-05-09T08:08:58.220Z,16.30
2023-05-09T08:11:26.331Z,16.40
2023-05-09T08:13:53.142Z,16.50
2023-05-09T08:16:20.014Z,16.60
2023-05-09T08:18:46.586Z,16.60
2023-05-09T08:21:15.991Z,16.70
2023-05-09T08:23:43.773Z,16.80
2023-05-09T08:26:12.377Z,16.90
2023-05-09T08:28:38.957Z,17.10
2023-05-09T08:31:05.638Z,17.30
2023-05-09T08:33:32.231Z,17.30
2023-05-09T08:35:58.896Z,17.40
2023-05-09T08:38:26.012Z,17.40
2023-05-09T08:40:52.599Z,17.50
2023-05-09T08:43:21.422Z,17.60
2023-05-09T08:45:55.799Z,17.70
2023-05-09T08:48:23.267Z,17.70
2023-05-09T08:50:50.543Z,17.90
2023-05-09T08:53:17.274Z,18.00
2023-05-09T08:55:44.312Z,18.30
2023-05-09T08:58:13.199Z,18.30
2023-05-09T09:00:42.916Z,18.30
2023-05-09T09:03:10.291Z,18.20
2023-05-09T09:05:42.195Z,18.40
2023-05-09T09:08:11.260Z,18.40
2023-05-09T09:10:43.334Z,18.50
2023-05-09T09:13:11.316Z,18.60
2023-05-09T09:15:40.487Z,18.70
2023-05-09T09:18:17.902Z,18.80
2023-05-09T09:20:55.163Z,18.90
2023-05-09T09:23:25.143Z,19.00
2023-05-09T09:26:00.092Z,18.90
2023-05-09T09:28:27.324Z,19.00
2023-05-09T09:30:53.973Z,19.10
2023-05-09T09:33:22.365Z,19.20
2023-05-09T09:35:54.052Z,19.20
2023-05-09T09:38:21.823Z,19.10
2023-05-09T09:40:53.106Z,19.10
2023-05-09T09:43:19.732Z,19.40
2023-05-09T09:45:50.850Z,19.70
2023-05-09T09:48:19.399Z,19.80
2023-05-09T09:50:48.307Z,19.80
2023-05-09T09:53:14.909Z,19.90
2023-05-09T09:55:53.162Z,19.90
2023-05-09T09:58:25.033Z,19.90
2023-05-09T10:01:25.076Z,19.90
2023-05-09T10:03:51.733Z,20.10
2023-05-09T10:06:18.483Z,20.20
2023-05-09T10:08:48.794Z,20.20
2023-05-09T10:11:15.744Z,20.30
2023-05-09T10:13:46.461Z,20.20
2023-05-09T10:16:13.878Z,20.40
2023-05-09T10:18:43.012Z,20.40
2023-05-09T10:21:14.545Z,20.50
2023-05-09T10:23:45.588Z,20.50
2023-05-09T10:26:28.760Z,20.60
2023-05-09T10:28:58.730Z,20.80
2023-05-09T10:31:32.279Z,20.90
2023-05-09T10:34:05.478Z,20.90
2023-05-09T10:36:32.467Z,21.20
2023-05-09T10:39:00.646Z,21.00
2023-05-09T10:41:27.919Z,21.00
2023-05-09T10:44:00.384Z,21.10
2023-05-09T10:46:27.527Z,21.20
2023-05-09T10:48:54.528Z,21.40
2023-05-09T10:51:21.626Z,21.50
2023-05-09T10:53:52.029Z,21.50
2023-05-09T10:56:26.327Z,21.70
2023-05-09T10:58:55.712Z,21.80
2023-05-09T11:01:31.076Z,21.80
2023-05-09T11:03:59.945Z,21.90
2023-05-09T11:06:45.397Z,22.00
2023-05-09T11:09:29.978Z,22.10
2023-05-09T11:12:18.965Z,22.10
2023-05-09T11:14:47.373Z,22.00
2023-05-09T11:17:20.762Z,22.10
2023-05-09T11:19:47.379Z,22.20
2023-05-09T11:22:16.632Z,22.30
2023-05-09T11:24:50.403Z,22.40
2023-05-09T11:27:21.798Z,22.40
2023-05-09T11:29:56.186Z,22.40
2023-05-09T11:32:28.602Z,22.40
2023-05-09T11:35:09.935Z,22.40
2023-05-09T11:37:47.961Z,22.30
2023-05-09T11:40:19.617Z,22.40
2023-05-09T11:42:49.768Z,22.40
2023-05-09T11:45:17.384Z,22.30
2023-05-09T11:47:46.236Z,22.30
2023-05-09T11:50:14.011Z,22.20
2023-05-09T11:52:43.190Z,22.20
2023-05-09T11:55:12.833Z,22.20
2023-05-09T11:57:44.155Z,22.20
2023-05-09T12:00:11.538Z,22.50
2023-05-09T12:02:38.469Z,22.70
2023-05-09T12:05:13.552Z,22.90
2023-05-09T12:07:41.186Z,23.00
2023-05-09T12:10:19.376Z,23.10
2023-05-09T12:12:51.263Z,23.30
2023-05-09T12:15:20.566Z,23.40
2023-05-09T12:17:50.477Z,23.50
2023-05-09T12:20:21.461Z,23.50
2023-05-09T12:22:54.448Z,23.50
2023-05-09T12:25:22.441Z,23.40
2023-05-09T12:27:49.092Z,23.40
2023-05-09T12:30:16.108Z,23.30
2023-05-09T12:32:43.623Z,23.30
2023-05-09T12:35:11.154Z,23.50
2023-05-09T12:37:38.405Z,23.70
2023-05-09T12:40:12.857Z,23.70
2023-05-09T12:42:43.203Z,23.70
2023-05-09T12:45:10.739Z,23.70
2023-05-09T12:47:41.872Z,23.70
2023-05-09T12:50:12.487Z,23.60
2023-05-09T12:52:54.155Z,23.80
2023-05-09T12:55:25.444Z,23.90
2023-05-09T12:58:03.214Z,23.80
2023-05-09T13:00:44.872Z,23.90
2023-05-09T13:03:33.296Z,23.90
2023-05-09T13:06:01.670Z,23.90
2023-05-09T13:08:29.853Z,23.90
2023-05-09T13:11:12.119Z,24.10
2023-05-09T13:13:46.113Z,24.20
2023-05-09T13:16:15.695Z,24.20
2023-05-09T13:18:45.455Z,24.20
2023-05-09T13:21:12.019Z,24.20
2023-05-09T13:23:38.634Z,24.30
2023-05-09T13:26:05.398Z,24.40
2023-05-09T13:28:31.949Z,24.60
2023-05-09T13:30:59.116Z,24.50
2023-05-09T13:33:26.807Z,24.60
2023-05-09T13:35:53.770Z,24.40
2023-05-09T13:38:20.621Z,24.40
2023-05-09T13:40:47.132Z,24.50
2023-05-09T13:43:13.876Z,24.50
2023-05-09T13:45:40.440Z,24.70
2023-05-09T13:48:07.089Z,24.90
2023-05-09T13:50:35.782Z,25.00
2023-05-09T13:53:06.239Z,25.00
2023-05-09T13:55:34.383Z,25.00
2023-05-09T13:58:00.953Z,24.80
2023-05-09T14:00:27.490Z,24.70
2023-05-09T14:02:54.237Z,24.80
2023-05-09T14:05:21.040Z,24.90
2023-05-09T14:07:47.713Z,24.90
2023-05-09T14:10:14.384Z,24.80
2023-05-09T14:12:44.084Z,24.80
2023-05-09T14:15:11.152Z,24.90
2023-05-09T14:17:38.028Z,25.10
2023-05-09T14:20:05.009Z,25.20
2023-05-09T14:22:31.604Z,25.30
2023-05-09T14:25:00.318Z,25.30
2023-05-09T14:27:27.304Z,25.40
2023-05-09T14:29:54.056Z,25.40
2023-05-09T14:32:21.443Z,25.40
2023-05-09T14:34:49.527Z,25.40
2023-05-09T14:37:16.350Z,25.40
2023-05-09T14:39:44.924Z,25.50
2023-05-09T14:42:13.813Z,25.70
2023-05-09T14:44:41.333Z,25.50
2023-05-09T14:47:08.962Z,25.40
2023-05-09T14:49:37.140Z,25.60
2023-05-09T14:52:03.834Z,25.80
2023-05-09T14:54:30.375Z,25.70
2023-05-09T14:56:59.352Z,25.90
2023-05-09T14:59:25.912Z,26.10
2023-05-09T15:01:52.650Z,26.20
2023-05-09T15:04:19.306Z,26.20
2023-05-09T15:06:46.177Z,26.20
2023-05-09T15:09:12.964Z,26.20
2023-05-09T15:11:47.860Z,26.20
2023-05-09T15:14:18.184Z,26.40
2023-05-09T15:16:44.892Z,26.40
2023-05-09T15:19:14.377Z,26.50
2023-05-09T15:21:43.420Z,26.20
2023-05-09T15:24:09.965Z,26.20
2023-05-09T15:26:36.508Z,26.10
2023-05-09T15:29:03.062Z,26.10
2023-05-09T15:31:33.556Z,26.10
2023-05-09T15:34:00.970Z,26.10
2023-05-09T15:36:29.832Z,26.00
2023-05-09T15:38:56.403Z,25.70
2023-05-09T15:41:23.073Z,25.70
2023-05-09T15:43:49.736Z,25.50
2023-05-09T15:46:17.065Z,25.70
2023-05-09T15:48:43.674Z,26.00
2023-05-09T15:51:10.251Z,26.00
2023-05-09T15:53:36.822Z,26.00
2023-05-09T15:56:03.900Z,26.10
2023-05-09T15:58:30.992Z,26.10
2023-05-09T16:00:57.599Z,26.30
2023-05-09T16:03:24.841Z,26.10
2023-05-09T16:05:52.191Z,26.30
2023-05-09T16:08:18.929Z,26.60
2023-05-09T16:10:48.874Z,26.60
2023-05-09T16:13:19.035Z,26.60
2023-05-09T16:15:47.712Z,26.30
2023-05-09T16:18:14.778Z,26.30
2023-05-09T16:20:43.918Z,26.40
2023-05-09T16:23:10.970Z,26.40
2023-05-09T16:25:41.218Z,26.60
2023-05-09T16:28:08.399Z,26.60
2023-05-09T16:30:38.253Z,26.70
2023-05-09T16:33:04.891Z,26.90
2023-05-09T16:35:31.633Z,27.00
2023-05-09T16:37:58.273Z,27.10
2023-05-09T16:40:26.507Z,27.10
2023-05-09T16:42:53.817Z,27.30
2023-05-09T16:45:20.558Z,27.30
2023-05-09T16:47:47.220Z,27.30
2023-05-09T16:50:13.896Z,27.30
2023-05-09T16:52:40.702Z,27.30
2023-05-09T16:55:07.647Z,27.10
2023-05-09T16:57:34.403Z,27.20
2023-05-09T17:00:01.007Z,27.50
2023-05-09T17:02:27.715Z,27.30
2023-05-09T17:04:54.631Z,27.60
2023-05-09T17:07:21.406Z,27.60
2023-05-09T17:09:49.396Z,27.40
2023-05-09T17:12:18.908Z,27.20
2023-05-09T17:14:47.052Z,27.40
2023-05-09T17:17:15.829Z,27.30
2023-05-09T17:19:42.689Z,26.90
2023-05-09T17:22:09.779Z,26.90
2023-05-09T17:24:36.367Z,26.80
2023-05-09T17:27:04.133Z,26.60
2023-05-09T17:29:31.028Z,26.10
2023-05-09T17:32:01.854Z,25.90
2023-05-09T17:34:29.010Z,26.30
2023-05-09T17:36:56.100Z,26.20
2023-05-09T17:39:23.244Z,26.60
2023-05-09T17:41:49.830Z,26.60
2023-05-09T17:44:16.668Z,26.30
2023-05-09T17:46:43.990Z,26.00
2023-05-09T17:49:10.989Z,26.10
2023-05-09T17:51:39.831Z,26.10
2023-05-09T17:54:06.440Z,25.90
2023-05-09T17:56:34.866Z,25.80
2023-05-09T17:59:01.602Z,25.90
2023-05-09T18:01:28.531Z,25.90
2023-05-09T18:03:57.240Z,25.60
2023-05-09T18:06:25.726Z,25.50
2023-05-09T18:08:52.298Z,25.40
2023-05-09T18:11:18.848Z,25.40
2023-05-09T18:13:46.886Z,25.50
2023-05-09T18:16:14.776Z,25.30
2023-05-09T18:18:41.498Z,25.10
2023-05-09T18:21:09.420Z,24.90
2023-05-09T18:23:36.815Z,24.90
2023-05-09T18:26:04.356Z,24.80
2023-05-09T18:28:31.874Z,24.50
2023-05-09T18:31:00.465Z,24.20
2023-05-09T18:33:28.559Z,23.80
2023-05-09T18:35:55.430Z,23.80
2023-05-09T18:38:23.589Z,23.70
2023-05-09T18:40:51.914Z,23.50
2023-05-09T18:43:20.660Z,23.50
2023-05-09T18:45:48.018Z,23.40
2023-05-09T18:48:17.705Z,23.30
2023-05-09T18:50:44.677Z,23.10
2023-05-09T18:53:11.598Z,23.00
2023-05-09T18:55:40.580Z,22.90
2023-05-09T18:58:07.149Z,22.80
2023-05-09T19:00:37.696Z,22.50
2023-05-09T19:03:04.378Z,22.30
2023-05-09T19:05:31.104Z,22.30
2023-05-09T19:08:00.241Z,22.20
2023-05-09T19:10:26.838Z,22.10
2023-05-09T19:12:53.523Z,22.00
2023-05-09T19:15:23.587Z,21.90
2023-05-09T19:17:50.148Z,21.90
2023-05-09T19:20:17.154Z,22.00
2023-05-09T19:22:48.032Z,21.90
2023-05-09T19:25:14.600Z,21.80
2023-05-09T19:27:41.180Z,21.70
2023-05-09T19:30:11.726Z,21.70
2023-05-09T19:32:38.387Z,21.60
2023-05-09T19:35:05.363Z,21.70
2023-05-09T19:37:32.136Z,21.60
2023-05-09T19:40:00.720Z,21.60
2023-05-09T19:42:27.271Z,21.60
2023-05-09T19:44:53.810Z,21.40
2023-05-09T19:47:20.425Z,21.40
2023-05-09T19:49:46.997Z,21.20
2023-05-09T19:52:13.674Z,21.30
2023-05-09T19:54:40.904Z,21.40
2023-05-09T19:57:07.550Z,21.20
2023-05-09T19:59:34.080Z,21.10
2023-05-09T20:02:02.779Z,21.00
2023-05-09T20:04:38.912Z,20.90
2023-05-09T20:07:05.802Z,20.60
2023-05-09T20:09:32.927Z,20.60
2023-05-09T20:12:03.961Z,20.50
2023-05-09T20:14:31.836Z,20.60
2023-05-09T20:16:58.500Z,20.40
2023-05-09T20:19:25.087Z,20.40
2023-05-09T20:21:52.800Z,20.50
2023-05-09T20:24:19.943Z,20.50
2023-05-09T20:26:46.589Z,20.50
2023-05-09T20:29:13.745Z,20.40
2023-05-09T20:31:42.988Z,20.30
2023-05-09T20:34:16.022Z,20.20
2023-05-09T20:36:43.141Z,20.10
2023-05-09T20:39:11.726Z,20.10
2023-05-09T20:41:39.210Z,20.10
2023-05-09T20:44:05.987Z,20.00
2023-05-09T20:46:33.584Z,20.10
2023-05-09T20:49:00.573Z,20.00
2023-05-09T20:51:27.131Z,19.80
2023-05-09T20:53:53.704Z,19.70
2023-05-09T20:56:21.390Z,19.70
2023-05-09T20:58:47.974Z,19.80
2023-05-09T21:01:16.452Z,19.70
2023-05-09T21:03:43.809Z,19.60
2023-05-09T21:06:10.936Z,19.50
2023-05-09T21:08:37.567Z,19.40
2023-05-09T21:11:04.098Z,19.30
2023-05-09T21:13:30.692Z,19.20
2023-05-09T21:15:57.518Z,19.10
2023-05-09T21:18:24.140Z,19.20
2023-05-09T21:20:50.692Z,19.20
2023-05-09T21:23:18.472Z,19.20
2023-05-09T21:25:45.097Z,19.30
2023-05-09T21:28:11.751Z,19.20
2023-05-09T21:30:38.297Z,19.10
2023-05-09T21:33:04.945Z,19.00
2023-05-09T21:35:31.505Z,19.00
2023-05-09T21:37:58.081Z,18.90
2023-05-09T21:40:24.781Z,18.90
2023-05-09T21:42:51.312Z,18.80
2023-05-09T21:45:18.428Z,18.80
2023-05-09T21:47:45.338Z,18.80
2023-05-09T21:50:12.038Z,18.70
2023-05-09T21:52:38.614Z,18.70
2023-05-09T21:55:05.534Z,18.70
2023-05-09T21:57:32.160Z,18.50
2023-05-09T22:00:01.359Z,18.60
2023-05-09T22:02:31.927Z,18.70
2023-05-09T22:04:58.552Z,18.70
2023-05-09T22:07:25.250Z,18.60
2023-05-09T22:09:52.794Z,18.40
2023-05-09T22:12:19.665Z,18.30
2023-05-09T22:14:55.774Z,18.20
2023-05-09T22:17:24.204Z,18.10
2023-05-09T22:19:50.892Z,18.00
2023-05-09T22:22:17.478Z,18.00
2023-05-09T22:24:44.008Z,18.00
2023-05-09T22:27:11.005Z,18.00
2023-05-09T22:29:37.691Z,17.90
2023-05-09T22:32:07.486Z,18.00
2023-05-09T22:34:34.786Z,17.90
2023-05-09T22:37:01.374Z,17.80
2023-05-09T22:39:27.978Z,17.80
2023-05-09T22:41:55.414Z,17.80
2023-05-09T22:44:22.076Z,17.80
2023-05-09T22:46:48.679Z,17.90
2023-05-09T22:49:15.266Z,17.90
2023-05-09T22:51:42.151Z,17.90
2023-05-09T22:54:08.973Z,17.90
2023-05-09T22:56:35.515Z,17.80
2023-05-09T22:59:02.124Z,17.80
2023-05-09T23:01:28.825Z,17.80
2023-05-09T23:03:55.574Z,17.70
2023-05-09T23:06:22.140Z,17.70
2023-05-09T23:08:48.757Z,17.60
2023-05-09T23:11:15.354Z,17.60
2023-05-09T23:13:42.321Z,17.50
2023-05-09T23:16:08.943Z,17.50
2023-05-09T23:18:35.738Z,17.50
2023-05-09T23:21:02.303Z,17.50
2023-05-09T23:23:28.987Z,17.60
2023-05-09T23:25:55.609Z,17.50
2023-05-09T23:28:25.030Z,17.40
2023-05-09T23:30:53.416Z,17.30
2023-05-09T23:33:20.422Z,17.20
2023-05-09T23:35:47.844Z,17.20
2023-05-09T23:38:14.477Z,17.20
2023-05-09T23:40:44.226Z,17.20
2023-05-09T23:43:10.808Z,17.10
2023-05-09T23:45:37.372Z,17.00
2023-05-09T23:48:04.566Z,17.00
2023-05-09T23:50:31.268Z,16.90
2023-05-09T23:52:57.854Z,16.90
2023-05-09T23:55:24.477Z,16.90
2023-05-09T23:57:51.038Z,16.80
